sensor_id;sensor_type;location;lat;lon;timestamp;pressure;altitude;pressure_sealevel;temperature;humidity
79250;BME280;68679;51.030;7.584;2023-07-31T00:01:41;98631.22;;;16.91;66.79
79250;BME280;68679;51.030;7.584;2023-07-31T00:04:06;98637.78;;;16.93;66.45
79250;BME280;68679;51.030;7.584;2023-07-31T00:06:31;98634.47;;;16.96;66.44
79250;BME280;68679;51.030;7.584;2023-07-31T00:08:56;98633.69;;;16.96;66.46
79250;BME280;68679;51.030;7.584;2023-07-31T00:11:22;98622.66;;;16.94;66.50
79250;BME280;68679;51.030;7.584;2023-07-31T00:13:47;98624.97;;;16.95;66.55
79250;BME280;68679;51.030;7.584;2023-07-31T00:16:12;98624.84;;;16.92;67.10
79250;BME280;68679;51.030;7.584;2023-07-31T00:18:38;98615.78;;;16.93;66.81
79250;BME280;68679;51.030;7.584;2023-07-31T00:21:03;98613.13;;;16.93;66.76
79250;BME280;68679;51.030;7.584;2023-07-31T00:23:28;98606.28;;;16.92;67.20
79250;BME280;68679;51.030;7.584;2023-07-31T00:25:53;98615.66;;;16.89;66.71
79250;BME280;68679;51.030;7.584;2023-07-31T00:28:19;98607.59;;;16.85;67.37
79250;BME280;68679;51.030;7.584;2023-07-31T00:30:44;98611.47;;;16.88;66.92
79250;BME280;68679;51.030;7.584;2023-07-31T00:33:09;98613.81;;;16.89;66.80
79250;BME280;68679;51.030;7.584;2023-07-31T00:35:34;98611.47;;;16.88;66.89
79250;BME280;68679;51.030;7.584;2023-07-31T00:38:00;98610.06;;;16.91;66.78
79250;BME280;68679;51.030;7.584;2023-07-31T00:40:25;98618.19;;;16.85;67.33
79250;BME280;68679;51.030;7.584;2023-07-31T00:42:50;98615.53;;;16.85;66.90
79250;BME280;68679;51.030;7.584;2023-07-31T00:45:16;98611.78;;;16.86;67.60
79250;BME280;68679;51.030;7.584;2023-07-31T00:47:41;98612.25;;;16.88;67.20
79250;BME280;68679;51.030;7.584;2023-07-31T00:50:07;98618.31;;;16.89;67.34
79250;BME280;68679;51.030;7.584;2023-07-31T00:52:32;98614.91;;;16.88;67.15
79250;BME280;68679;51.030;7.584;2023-07-31T00:54:57;98616.88;;;16.92;67.26
79250;BME280;68679;51.030;7.584;2023-07-31T00:57:23;98609.13;;;16.86;67.35
79250;BME280;68679;51.030;7.584;2023-07-31T00:59:48;98608.06;;;16.87;67.06
79250;BME280;68679;51.030;7.584;2023-07-31T01:02:14;98604.16;;;16.85;67.40
79250;BME280;68679;51.030;7.584;2023-07-31T01:04:39;98602.28;;;16.85;67.48
79250;BME280;68679;51.030;7.584;2023-07-31T01:07:12;98598.44;;;16.83;67.69
79250;BME280;68679;51.030;7.584;2023-07-31T01:09:52;98594.53;;;16.80;67.34
79250;BME280;68679;51.030;7.584;2023-07-31T01:12:23;98598.09;;;16.84;67.54
79250;BME280;68679;51.030;7.584;2023-07-31T01:15:06;98595.44;;;16.84;67.27
79250;BME280;68679;51.030;7.584;2023-07-31T01:17:32;98593.13;;;16.83;67.35
79250;BME280;68679;51.030;7.584;2023-07-31T01:20:02;98585.81;;;16.80;68.17
79250;BME280;68679;51.030;7.584;2023-07-31T01:28:01;98593.75;;;16.80;67.62
79250;BME280;68679;51.030;7.584;2023-07-31T01:30:32;98584.84;;;16.84;67.90
79250;BME280;68679;51.030;7.584;2023-07-31T01:33:02;98595.78;;;16.83;67.46
79250;BME280;68679;51.030;7.584;2023-07-31T01:35:33;98596.56;;;16.83;66.95
79250;BME280;68679;51.030;7.584;2023-07-31T01:37:58;98593.47;;;16.81;67.25
79250;BME280;68679;51.030;7.584;2023-07-31T01:40:24;98603.56;;;16.79;67.70
79250;BME280;68679;51.030;7.584;2023-07-31T01:42:49;98595.63;;;16.79;67.94
79250;BME280;68679;51.030;7.584;2023-07-31T01:45:14;98594.09;;;16.78;67.88
79250;BME280;68679;51.030;7.584;2023-07-31T01:47:40;98586.91;;;16.79;67.59
79250;BME280;68679;51.030;7.584;2023-07-31T01:50:05;98584.59;;;16.77;67.82
79250;BME280;68679;51.030;7.584;2023-07-31T01:52:31;98578.19;;;16.78;67.54
79250;BME280;68679;51.030;7.584;2023-07-31T01:54:56;98582.41;;;16.79;67.49
79250;BME280;68679;51.030;7.584;2023-07-31T01:57:21;98584.59;;;16.77;67.37
79250;BME280;68679;51.030;7.584;2023-07-31T01:59:46;98588.16;;;16.81;67.28
79250;BME280;68679;51.030;7.584;2023-07-31T02:02:12;98583.94;;;16.80;67.60
79250;BME280;68679;51.030;7.584;2023-07-31T02:04:38;98579.31;;;16.77;67.74
79250;BME280;68679;51.030;7.584;2023-07-31T02:07:04;98582.59;;;16.74;67.65
79250;BME280;68679;51.030;7.584;2023-07-31T02:09:30;98579.94;;;16.74;67.50
79250;BME280;68679;51.030;7.584;2023-07-31T02:11:55;98577.63;;;16.73;67.20
79250;BME280;68679;51.030;7.584;2023-07-31T02:14:20;98584.00;;;16.72;67.32
79250;BME280;68679;51.030;7.584;2023-07-31T02:16:46;98582.59;;;16.74;67.75
79250;BME280;68679;51.030;7.584;2023-07-31T02:19:11;98578.72;;;16.72;67.58
79250;BME280;68679;51.030;7.584;2023-07-31T02:21:36;98575.59;;;16.70;67.95
79250;BME280;68679;51.030;7.584;2023-07-31T02:24:01;98570.31;;;16.70;67.58
79250;BME280;68679;51.030;7.584;2023-07-31T02:26:27;98573.25;;;16.68;67.90
79250;BME280;68679;51.030;7.584;2023-07-31T02:28:52;98570.31;;;16.70;67.18
79250;BME280;68679;51.030;7.584;2023-07-31T02:31:17;98558.47;;;16.67;67.75
79250;BME280;68679;51.030;7.584;2023-07-31T02:33:42;98565.53;;;16.63;67.49
79250;BME280;68679;51.030;7.584;2023-07-31T02:36:08;98567.19;;;16.68;67.52
79250;BME280;68679;51.030;7.584;2023-07-31T02:38:33;98564.09;;;16.66;67.36
79250;BME280;68679;51.030;7.584;2023-07-31T02:40:58;98559.91;;;16.65;67.44
79250;BME280;68679;51.030;7.584;2023-07-31T02:43:24;98557.69;;;16.67;67.66
79250;BME280;68679;51.030;7.584;2023-07-31T02:45:52;98558.03;;;16.65;67.58
79250;BME280;68679;51.030;7.584;2023-07-31T02:48:18;98557.09;;;16.61;68.00
79250;BME280;68679;51.030;7.584;2023-07-31T02:50:45;98563.50;;;16.60;67.74
79250;BME280;68679;51.030;7.584;2023-07-31T02:53:10;98552.59;;;16.61;67.83
79250;BME280;68679;51.030;7.584;2023-07-31T02:55:35;98549.94;;;16.61;67.60
79250;BME280;68679;51.030;7.584;2023-07-31T02:58:01;98549.94;;;16.61;67.63
79250;BME280;68679;51.030;7.584;2023-07-31T03:00:26;98554.16;;;16.62;67.86
79250;BME280;68679;51.030;7.584;2023-07-31T03:02:51;98546.06;;;16.59;67.95
79250;BME280;68679;51.030;7.584;2023-07-31T03:05:16;98544.97;;;16.60;67.71
79250;BME280;68679;51.030;7.584;2023-07-31T03:07:42;98544.53;;;16.58;68.09
79250;BME280;68679;51.030;7.584;2023-07-31T03:10:07;98538.13;;;16.59;68.08
79250;BME280;68679;51.030;7.584;2023-07-31T03:12:33;98531.63;;;16.56;67.46
79250;BME280;68679;51.030;7.584;2023-07-31T03:14:58;98520.72;;;16.58;67.56
79250;BME280;68679;51.030;7.584;2023-07-31T03:17:23;98527.72;;;16.54;68.20
79250;BME280;68679;51.030;7.584;2023-07-31T03:19:49;98518.56;;;16.51;68.42
79250;BME280;68679;51.030;7.584;2023-07-31T03:22:14;98530.72;;;16.52;68.45
79250;BME280;68679;51.030;7.584;2023-07-31T03:24:39;98524.16;;;16.50;68.31
79250;BME280;68679;51.030;7.584;2023-07-31T03:27:05;98518.88;;;16.50;68.37
79250;BME280;68679;51.030;7.584;2023-07-31T03:29:30;98523.09;;;16.51;68.53
79250;BME280;68679;51.030;7.584;2023-07-31T03:31:55;98532.59;;;16.52;68.14
79250;BME280;68679;51.030;7.584;2023-07-31T03:34:21;98519.69;;;16.50;68.02
79250;BME280;68679;51.030;7.584;2023-07-31T03:36:46;98517.47;;;16.52;67.77
79250;BME280;68679;51.030;7.584;2023-07-31T03:39:11;98517.47;;;16.52;68.19
79250;BME280;68679;51.030;7.584;2023-07-31T03:41:36;98505.66;;;16.50;68.04
79250;BME280;68679;51.030;7.584;2023-07-31T03:44:02;98505.78;;;16.53;67.94
79250;BME280;68679;51.030;7.584;2023-07-31T03:46:27;98501.59;;;16.52;68.52
79250;BME280;68679;51.030;7.584;2023-07-31T03:48:52;98508.44;;;16.53;68.04
79250;BME280;68679;51.030;7.584;2023-07-31T03:51:18;98506.44;;;16.50;68.34
79250;BME280;68679;51.030;7.584;2023-07-31T03:53:43;98501.94;;;16.51;68.30
79250;BME280;68679;51.030;7.584;2023-07-31T03:56:09;98494.75;;;16.51;68.28
79250;BME280;68679;51.030;7.584;2023-07-31T03:58:34;98496.63;;;16.51;68.30
79250;BME280;68679;51.030;7.584;2023-07-31T04:01:01;98496.63;;;16.51;68.10
79250;BME280;68679;51.030;7.584;2023-07-31T04:03:26;98487.13;;;16.50;68.15
79250;BME280;68679;51.030;7.584;2023-07-31T04:05:54;98497.41;;;16.51;68.32
79250;BME280;68679;51.030;7.584;2023-07-31T04:08:19;98499.72;;;16.53;67.67
79250;BME280;68679;51.030;7.584;2023-07-31T04:10:44;98498.63;;;16.54;67.83
79250;BME280;68679;51.030;7.584;2023-07-31T04:13:09;98495.84;;;16.50;68.13
79250;BME280;68679;51.030;7.584;2023-07-31T04:15:35;98490.88;;;16.49;68.09
79250;BME280;68679;51.030;7.584;2023-07-31T04:18:00;98496.31;;;16.52;67.75
79250;BME280;68679;51.030;7.584;2023-07-31T04:20:25;98490.69;;;16.54;67.97
79250;BME280;68679;51.030;7.584;2023-07-31T04:22:50;98493.66;;;16.52;68.04
79250;BME280;68679;51.030;7.584;2023-07-31T04:25:16;98504.69;;;16.54;67.73
79250;BME280;68679;51.030;7.584;2023-07-31T04:27:41;98497.50;;;16.55;68.14
79250;BME280;68679;51.030;7.584;2023-07-31T04:30:07;98490.69;;;16.54;68.47
79250;BME280;68679;51.030;7.584;2023-07-31T04:32:32;98501.25;;;16.54;67.97
79250;BME280;68679;51.030;7.584;2023-07-31T04:34:57;98498.50;;;16.50;68.10
79250;BME280;68679;51.030;7.584;2023-07-31T04:37:23;98500.16;;;16.55;68.45
79250;BME280;68679;51.030;7.584;2023-07-31T04:39:48;98497.41;;;16.51;68.29
79250;BME280;68679;51.030;7.584;2023-07-31T04:42:13;98497.41;;;16.51;68.48
79250;BME280;68679;51.030;7.584;2023-07-31T04:44:38;98498.50;;;16.50;68.67
79250;BME280;68679;51.030;7.584;2023-07-31T04:47:04;98486.47;;;16.53;69.27
79250;BME280;68679;51.030;7.584;2023-07-31T04:49:29;98491.13;;;16.56;69.01
79250;BME280;68679;51.030;7.584;2023-07-31T04:51:54;98494.44;;;16.53;68.95
79250;BME280;68679;51.030;7.584;2023-07-31T04:54:20;98495.53;;;16.52;69.20
79250;BME280;68679;51.030;7.584;2023-07-31T04:56:45;98493.31;;;16.54;68.74
79250;BME280;68679;51.030;7.584;2023-07-31T04:59:10;98492.56;;;16.53;68.70
79250;BME280;68679;51.030;7.584;2023-07-31T05:01:36;98490.22;;;16.52;69.01
79250;BME280;68679;51.030;7.584;2023-07-31T05:04:01;98484.94;;;16.52;68.45
79250;BME280;68679;51.030;7.584;2023-07-31T05:06:26;98485.72;;;16.52;68.83
79250;BME280;68679;51.030;7.584;2023-07-31T05:08:51;98486.94;;;16.55;68.68
79250;BME280;68679;51.030;7.584;2023-07-31T05:11:17;98481.00;;;16.58;68.36
79250;BME280;68679;51.030;7.584;2023-07-31T05:13:42;98474.47;;;16.55;68.63
79250;BME280;68679;51.030;7.584;2023-07-31T05:16:07;98482.72;;;16.54;69.25
79250;BME280;68679;51.030;7.584;2023-07-31T05:18:32;98488.03;;;16.54;69.05
79250;BME280;68679;51.030;7.584;2023-07-31T05:20:58;98486.94;;;16.55;68.85
79250;BME280;68679;51.030;7.584;2023-07-31T05:23:23;98485.53;;;16.57;68.83
79250;BME280;68679;51.030;7.584;2023-07-31T05:25:48;98483.19;;;16.56;69.30
79250;BME280;68679;51.030;7.584;2023-07-31T05:28:14;98474.94;;;16.57;69.17
79250;BME280;68679;51.030;7.584;2023-07-31T05:30:39;98469.63;;;16.57;69.53
79250;BME280;68679;51.030;7.584;2023-07-31T05:33:04;98454.53;;;16.58;70.04
79250;BME280;68679;51.030;7.584;2023-07-31T05:35:29;98462.13;;;16.59;69.03
79250;BME280;68679;51.030;7.584;2023-07-31T05:37:55;98454.19;;;16.59;69.29
79250;BME280;68679;51.030;7.584;2023-07-31T05:40:20;98454.63;;;16.61;69.62
79250;BME280;68679;51.030;7.584;2023-07-31T05:42:45;98452.75;;;16.62;69.75
79250;BME280;68679;51.030;7.584;2023-07-31T05:45:11;98458.53;;;16.64;69.57
79250;BME280;68679;51.030;7.584;2023-07-31T05:47:36;98452.28;;;16.69;69.56
79250;BME280;68679;51.030;7.584;2023-07-31T05:50:02;98443.69;;;16.72;69.10
79250;BME280;68679;51.030;7.584;2023-07-31T05:52:27;98431.66;;;16.74;68.80
79250;BME280;68679;51.030;7.584;2023-07-31T05:54:54;98435.56;;;16.77;68.55
79250;BME280;68679;51.030;7.584;2023-07-31T05:57:19;98439.09;;;16.81;69.46
79250;BME280;68679;51.030;7.584;2023-07-31T05:59:45;98424.44;;;16.83;69.40
79250;BME280;68679;51.030;7.584;2023-07-31T06:02:10;98410.06;;;16.84;69.31
79250;BME280;68679;51.030;7.584;2023-07-31T06:04:36;98415.50;;;16.88;69.58
79250;BME280;68679;51.030;7.584;2023-07-31T06:07:01;98415.94;;;16.90;69.57
79250;BME280;68679;51.030;7.584;2023-07-31T06:09:26;98414.84;;;16.91;69.79
79250;BME280;68679;51.030;7.584;2023-07-31T06:11:52;98410.00;;;16.93;68.44
79250;BME280;68679;51.030;7.584;2023-07-31T06:14:17;98408.56;;;16.96;68.81
79250;BME280;68679;51.030;7.584;2023-07-31T06:16:44;98416.63;;;16.99;68.40
79250;BME280;68679;51.030;7.584;2023-07-31T06:19:09;98414.44;;;17.01;69.33
79250;BME280;68679;51.030;7.584;2023-07-31T06:21:35;98410.69;;;17.02;68.20
79250;BME280;68679;51.030;7.584;2023-07-31T06:24:03;98413.75;;;17.04;68.60
79250;BME280;68679;51.030;7.584;2023-07-31T06:26:28;98413.44;;;17.06;68.66
79250;BME280;68679;51.030;7.584;2023-07-31T06:28:53;98412.34;;;17.07;68.44
79250;BME280;68679;51.030;7.584;2023-07-31T06:31:18;98417.31;;;17.08;68.71
79250;BME280;68679;51.030;7.584;2023-07-31T06:33:47;98416.97;;;17.10;68.01
79250;BME280;68679;51.030;7.584;2023-07-31T06:36:13;98420.38;;;17.10;68.28
79250;BME280;68679;51.030;7.584;2023-07-31T06:38:38;98421.19;;;17.11;68.81
79250;BME280;68679;51.030;7.584;2023-07-31T06:41:03;98424.91;;;17.10;69.95
79250;BME280;68679;51.030;7.584;2023-07-31T06:43:29;98425.69;;;17.10;69.82
79250;BME280;68679;51.030;7.584;2023-07-31T06:45:54;98423.84;;;17.11;68.75
79250;BME280;68679;51.030;7.584;2023-07-31T06:48:19;98426.03;;;17.09;68.83
79250;BME280;68679;51.030;7.584;2023-07-31T06:50:45;98430.56;;;17.08;69.22
79250;BME280;68679;51.030;7.584;2023-07-31T06:53:10;98421.84;;;17.08;70.13
79250;BME280;68679;51.030;7.584;2023-07-31T06:55:35;98421.84;;;17.08;70.28
79250;BME280;68679;51.030;7.584;2023-07-31T06:58:01;98426.38;;;17.07;69.93
79250;BME280;68679;51.030;7.584;2023-07-31T07:00:26;98413.13;;;17.07;68.87
79250;BME280;68679;51.030;7.584;2023-07-31T07:02:52;98415.75;;;17.07;68.61
79250;BME280;68679;51.030;7.584;2023-07-31T07:05:17;98415.44;;;17.09;68.77
79250;BME280;68679;51.030;7.584;2023-07-31T07:07:43;98412.34;;;17.07;68.89
79250;BME280;68679;51.030;7.584;2023-07-31T07:10:08;98408.59;;;17.08;69.65
79250;BME280;68679;51.030;7.584;2023-07-31T07:12:34;98405.94;;;17.08;69.29
79250;BME280;68679;51.030;7.584;2023-07-31T07:15:01;98407.16;;;17.10;69.68
79250;BME280;68679;51.030;7.584;2023-07-31T07:17:28;98401.53;;;17.12;68.64
79250;BME280;68679;51.030;7.584;2023-07-31T07:19:55;98406.63;;;17.17;68.00
79250;BME280;68679;51.030;7.584;2023-07-31T07:22:21;98396.91;;;17.21;67.52
79250;BME280;68679;51.030;7.584;2023-07-31T07:24:46;98391.72;;;17.25;68.53
79250;BME280;68679;51.030;7.584;2023-07-31T07:27:11;98396.69;;;17.26;67.32
79250;BME280;68679;51.030;7.584;2023-07-31T07:29:37;98400.53;;;17.29;67.68
79250;BME280;68679;51.030;7.584;2023-07-31T07:32:03;98390.84;;;17.33;67.25
79250;BME280;68679;51.030;7.584;2023-07-31T07:34:29;98389.09;;;17.37;66.21
79250;BME280;68679;51.030;7.584;2023-07-31T07:36:54;98394.81;;;17.39;65.89
79250;BME280;68679;51.030;7.584;2023-07-31T07:39:20;98392.59;;;17.41;64.79
79250;BME280;68679;51.030;7.584;2023-07-31T07:41:46;98392.72;;;17.45;65.48
79250;BME280;68679;51.030;7.584;2023-07-31T07:44:12;98392.06;;;17.48;65.78
79250;BME280;68679;51.030;7.584;2023-07-31T07:46:38;98395.16;;;17.50;64.75
79250;BME280;68679;51.030;7.584;2023-07-31T07:49:03;98389.19;;;17.53;62.97
79250;BME280;68679;51.030;7.584;2023-07-31T07:51:28;98401.78;;;17.56;62.80
79250;BME280;68679;51.030;7.584;2023-07-31T07:53:55;98407.50;;;17.58;62.26
79250;BME280;68679;51.030;7.584;2023-07-31T07:56:21;98401.88;;;17.59;64.40
79250;BME280;68679;51.030;7.584;2023-07-31T07:58:48;98409.06;;;17.59;63.74
79250;BME280;68679;51.030;7.584;2023-07-31T08:01:14;98404.22;;;17.61;61.95
79250;BME280;68679;51.030;7.584;2023-07-31T08:03:39;98392.84;;;17.60;60.58
79250;BME280;68679;51.030;7.584;2023-07-31T08:06:05;98398.91;;;17.61;62.22
79250;BME280;68679;51.030;7.584;2023-07-31T08:08:30;98400.78;;;17.60;61.25
79250;BME280;68679;51.030;7.584;2023-07-31T08:10:55;98397.38;;;17.60;64.13
79250;BME280;68679;51.030;7.584;2023-07-31T08:13:21;98398.13;;;17.60;63.69
79250;BME280;68679;51.030;7.584;2023-07-31T08:15:46;98393.59;;;17.61;61.86
79250;BME280;68679;51.030;7.584;2023-07-31T08:18:11;98393.16;;;17.59;62.24
79250;BME280;68679;51.030;7.584;2023-07-31T08:20:37;98396.56;;;17.59;66.46
79250;BME280;68679;51.030;7.584;2023-07-31T08:23:03;98398.44;;;17.59;65.10
79250;BME280;68679;51.030;7.584;2023-07-31T08:25:28;98391.59;;;17.58;66.15
79250;BME280;68679;51.030;7.584;2023-07-31T08:27:54;98399.56;;;17.58;63.80
79250;BME280;68679;51.030;7.584;2023-07-31T08:30:19;98394.38;;;17.61;65.59
79250;BME280;68679;51.030;7.584;2023-07-31T08:32:45;98395.91;;;17.62;61.82
79250;BME280;68679;51.030;7.584;2023-07-31T08:35:10;98385.31;;;17.62;65.24
79250;BME280;68679;51.030;7.584;2023-07-31T08:37:37;98390.97;;;17.61;65.70
79250;BME280;68679;51.030;7.584;2023-07-31T08:40:03;98385.19;;;17.59;65.54
79250;BME280;68679;51.030;7.584;2023-07-31T08:42:29;98385.19;;;17.59;65.90
79250;BME280;68679;51.030;7.584;2023-07-31T08:44:55;98383.31;;;17.59;66.88
79250;BME280;68679;51.030;7.584;2023-07-31T08:47:21;98380.34;;;17.61;62.75
79250;BME280;68679;51.030;7.584;2023-07-31T08:49:47;98379.59;;;17.60;65.76
79250;BME280;68679;51.030;7.584;2023-07-31T08:52:13;98377.38;;;17.62;61.64
79250;BME280;68679;51.030;7.584;2023-07-31T08:54:38;98373.59;;;17.63;65.36
79250;BME280;68679;51.030;7.584;2023-07-31T08:57:05;98379.66;;;17.64;62.69
79250;BME280;68679;51.030;7.584;2023-07-31T08:59:31;98363.00;;;17.63;61.66
79250;BME280;68679;51.030;7.584;2023-07-31T09:02:04;98394.81;;;17.63;67.03
79250;BME280;68679;51.030;7.584;2023-07-31T09:04:32;98397.03;;;17.61;62.97
79250;BME280;68679;51.030;7.584;2023-07-31T09:07:01;98389.84;;;17.62;65.89
79250;BME280;68679;51.030;7.584;2023-07-31T09:09:28;98374.72;;;17.62;62.36
79250;BME280;68679;51.030;7.584;2023-07-31T09:11:54;98382.00;;;17.65;66.62
79250;BME280;68679;51.030;7.584;2023-07-31T09:14:21;98385.44;;;17.66;66.98
79250;BME280;68679;51.030;7.584;2023-07-31T09:16:57;98375.13;;;17.64;64.65
79250;BME280;68679;51.030;7.584;2023-07-31T09:19:33;98381.66;;;17.67;60.59
79250;BME280;68679;51.030;7.584;2023-07-31T09:21:59;98384.66;;;17.65;63.79
79250;BME280;68679;51.030;7.584;2023-07-31T09:24:29;98374.50;;;17.67;62.28
79250;BME280;68679;51.030;7.584;2023-07-31T09:26:56;98373.38;;;17.68;63.78
79250;BME280;68679;51.030;7.584;2023-07-31T09:29:22;98372.59;;;17.68;68.10
79250;BME280;68679;51.030;7.584;2023-07-31T09:31:48;98373.38;;;17.68;65.05
79250;BME280;68679;51.030;7.584;2023-07-31T09:34:14;98382.53;;;17.71;63.55
79250;BME280;68679;51.030;7.584;2023-07-31T09:36:41;98369.63;;;17.69;61.92
79250;BME280;68679;51.030;7.584;2023-07-31T09:39:09;98371.16;;;17.70;62.48
79250;BME280;68679;51.030;7.584;2023-07-31T09:41:38;98367.09;;;17.73;60.41
79250;BME280;68679;51.030;7.584;2023-07-31T09:44:04;98361.47;;;17.75;61.90
79250;BME280;68679;51.030;7.584;2023-07-31T09:46:30;98362.56;;;17.74;61.31
79250;BME280;68679;51.030;7.584;2023-07-31T09:49:04;98365.31;;;17.77;61.48
79250;BME280;68679;51.030;7.584;2023-07-31T09:51:30;98359.59;;;17.75;63.54
79250;BME280;68679;51.030;7.584;2023-07-31T09:53:56;98360.00;;;17.77;66.15
79250;BME280;68679;51.030;7.584;2023-07-31T09:56:23;98353.16;;;17.76;61.09
79250;BME280;68679;51.030;7.584;2023-07-31T09:58:48;98353.94;;;17.77;64.18
79250;BME280;68679;51.030;7.584;2023-07-31T10:01:14;98346.75;;;17.77;61.01
79250;BME280;68679;51.030;7.584;2023-07-31T10:03:39;98344.00;;;17.74;65.81
79250;BME280;68679;51.030;7.584;2023-07-31T10:06:08;98345.22;;;17.76;62.92
79250;BME280;68679;51.030;7.584;2023-07-31T10:08:34;98342.13;;;17.74;67.18
79250;BME280;68679;51.030;7.584;2023-07-31T10:11:01;98344.78;;;17.74;69.36
79250;BME280;68679;51.030;7.584;2023-07-31T10:13:28;98350.50;;;17.76;60.73
79250;BME280;68679;51.030;7.584;2023-07-31T10:15:54;98341.44;;;17.77;68.42
79250;BME280;68679;51.030;7.584;2023-07-31T10:18:23;98345.97;;;17.77;63.04
79250;BME280;68679;51.030;7.584;2023-07-31T10:20:49;98349.41;;;17.77;65.10
79250;BME280;68679;51.030;7.584;2023-07-31T10:23:15;98341.34;;;17.74;63.07
79250;BME280;68679;51.030;7.584;2023-07-31T10:25:41;98340.25;;;17.75;67.85
79250;BME280;68679;51.030;7.584;2023-07-31T10:28:08;98339.91;;;17.76;66.35
79250;BME280;68679;51.030;7.584;2023-07-31T10:30:35;98331.63;;;17.78;60.90
79250;BME280;68679;51.030;7.584;2023-07-31T10:33:03;98338.78;;;17.77;61.09
79250;BME280;68679;51.030;7.584;2023-07-31T10:35:30;98327.75;;;17.75;69.30
79250;BME280;68679;51.030;7.584;2023-07-31T10:37:55;98328.19;;;17.77;61.63
79250;BME280;68679;51.030;7.584;2023-07-31T10:40:25;98330.06;;;17.77;66.20
79250;BME280;68679;51.030;7.584;2023-07-31T10:42:53;98322.88;;;17.77;63.96
79250;BME280;68679;51.030;7.584;2023-07-31T10:45:36;98327.88;;;17.79;63.80
79250;BME280;68679;51.030;7.584;2023-07-31T10:48:17;98318.03;;;17.79;61.94
79250;BME280;68679;51.030;7.584;2023-07-31T10:50:48;98320.34;;;17.81;60.37
79250;BME280;68679;51.030;7.584;2023-07-31T10:53:29;98313.94;;;17.82;62.46
79250;BME280;68679;51.030;7.584;2023-07-31T10:56:05;98326.06;;;17.83;63.93
79250;BME280;68679;51.030;7.584;2023-07-31T10:58:31;98324.66;;;17.85;61.26
79250;BME280;68679;51.030;7.584;2023-07-31T11:01:06;98316.00;;;17.88;62.13
79250;BME280;68679;51.030;7.584;2023-07-31T11:03:48;98313.03;;;17.90;61.37
79250;BME280;68679;51.030;7.584;2023-07-31T11:06:15;98315.00;;;17.93;61.12
79250;BME280;68679;51.030;7.584;2023-07-31T11:08:43;98320.31;;;17.93;61.78
79250;BME280;68679;51.030;7.584;2023-07-31T11:11:13;98322.31;;;17.96;61.63
79250;BME280;68679;51.030;7.584;2023-07-31T11:13:52;98316.31;;;17.99;63.07
79250;BME280;68679;51.030;7.584;2023-07-31T11:16:20;98317.06;;;18.00;62.58
79250;BME280;68679;51.030;7.584;2023-07-31T11:18:47;98313.00;;;18.02;62.20
79250;BME280;68679;51.030;7.584;2023-07-31T11:21:22;98313.41;;;18.04;62.67
79250;BME280;68679;51.030;7.584;2023-07-31T11:23:53;98314.63;;;18.07;62.33
79250;BME280;68679;51.030;7.584;2023-07-31T11:26:19;98311.66;;;18.08;61.96
79250;BME280;68679;51.030;7.584;2023-07-31T11:28:48;98305.66;;;18.11;61.52
79250;BME280;68679;51.030;7.584;2023-07-31T11:31:13;98322.00;;;18.13;62.29
79250;BME280;68679;51.030;7.584;2023-07-31T11:33:39;98319.03;;;18.15;61.95
79250;BME280;68679;51.030;7.584;2023-07-31T11:36:04;98308.06;;;18.16;62.06
79250;BME280;68679;51.030;7.584;2023-07-31T11:38:32;98308.50;;;18.18;61.90
79250;BME280;68679;51.030;7.584;2023-07-31T11:40:59;98308.94;;;18.20;62.06
79250;BME280;68679;51.030;7.584;2023-07-31T11:43:25;98311.25;;;18.22;61.80
79250;BME280;68679;51.030;7.584;2023-07-31T11:45:56;98305.59;;;18.23;61.75
79250;BME280;68679;51.030;7.584;2023-07-31T11:48:41;98298.06;;;18.26;62.30
79250;BME280;68679;51.030;7.584;2023-07-31T11:51:10;98295.09;;;18.27;62.11
79250;BME280;68679;51.030;7.584;2023-07-31T11:53:43;98289.09;;;18.30;61.56
79250;BME280;68679;51.030;7.584;2023-07-31T11:56:10;98289.19;;;18.34;62.54
79250;BME280;68679;51.030;7.584;2023-07-31T11:58:38;98282.00;;;18.34;62.24
79250;BME280;68679;51.030;7.584;2023-07-31T12:01:05;98277.44;;;18.35;62.10
79250;BME280;68679;51.030;7.584;2023-07-31T12:03:31;98277.09;;;18.36;60.77
79250;BME280;68679;51.030;7.584;2023-07-31T12:05:58;98280.97;;;18.39;61.90
79250;BME280;68679;51.030;7.584;2023-07-31T12:08:24;98276.34;;;18.36;61.56
79250;BME280;68679;51.030;7.584;2023-07-31T12:10:50;98273.69;;;18.36;60.73
79250;BME280;68679;51.030;7.584;2023-07-31T12:13:24;98274.03;;;18.34;61.39
79250;BME280;68679;51.030;7.584;2023-07-31T12:15:59;98279.34;;;18.34;60.71
79250;BME280;68679;51.030;7.584;2023-07-31T12:18:27;98271.38;;;18.34;60.49
79250;BME280;68679;51.030;7.584;2023-07-31T12:21:04;98273.25;;;18.34;62.09
79250;BME280;68679;51.030;7.584;2023-07-31T12:23:31;98268.31;;;18.32;59.73
79250;BME280;68679;51.030;7.584;2023-07-31T12:28:48;98283.88;;;18.34;61.33
79250;BME280;68679;51.030;7.584;2023-07-31T12:31:16;98274.03;;;18.34;59.37
79250;BME280;68679;51.030;7.584;2023-07-31T12:33:46;98269.06;;;18.33;60.21
79250;BME280;68679;51.030;7.584;2023-07-31T12:36:16;98261.53;;;18.35;64.26
79250;BME280;68679;51.030;7.584;2023-07-31T12:38:43;98261.88;;;18.33;60.72
79250;BME280;68679;51.030;7.584;2023-07-31T12:41:09;98265.31;;;18.34;61.31
79250;BME280;68679;51.030;7.584;2023-07-31T12:43:35;98260.75;;;18.34;60.99
79250;BME280;68679;51.030;7.584;2023-07-31T12:46:01;98261.53;;;18.35;59.33
79250;BME280;68679;51.030;7.584;2023-07-31T12:48:26;98263.84;;;18.36;59.88
79250;BME280;68679;51.030;7.584;2023-07-31T12:50:52;98260.84;;;18.38;60.53
79250;BME280;68679;51.030;7.584;2023-07-31T12:53:17;98251.00;;;18.38;61.02
79250;BME280;68679;51.030;7.584;2023-07-31T12:55:42;98248.34;;;18.38;60.42
79250;BME280;68679;51.030;7.584;2023-07-31T12:58:07;98232.44;;;18.38;60.38
79250;BME280;68679;51.030;7.584;2023-07-31T13:00:33;98236.63;;;18.39;59.52
79250;BME280;68679;51.030;7.584;2023-07-31T13:02:59;98233.19;;;18.39;60.63
79250;BME280;68679;51.030;7.584;2023-07-31T13:05:25;98242.69;;;18.40;60.57